Jefferson, NY (12093)

6:34 AM EST en Enero 31, 2015 (GMT -0500)
Charlotte Valley | Change Station
CLOSE
Current Station
Estación meteorológica personal
Location: Charlotteville, NY
Altura: 1430 ft
Estaciones meteorológicas cercanas

Alt 1430 ft 42.52 °N, 74.72 °W | Updated 5 minutes ago

Parcialmente nublado
Parcialmente nublado
-4.7 ° F
Sensación térmica -13 ° F
N
3.2
Viento Variable Viento desde SSO

Hoy
Alta -- | Baja -- ° F
--% Posibilidad de precipitaciones
Ayer
Alta -- | Baja -- ° F
Precip. -- pul
7:13 AM 5:10 PM
Gibosa creciente, 89% visible
Presión 30.17 pul
Visibilidad 10.0 Millas
Nubes Despejado
Vientos helados -13 ° F
Punto de rocío -10 ° F
Humedad 76%
Precipitaciones 0.00 pul
Espesor de la nieve No disponible.
UV 0 de una escala de 12
Polen .10 de una escala de 12
Calidad del aire No disponible.
Flu Activity No disponible.
METAR KALB 311051Z 30014KT 10SM CLR M17/M24 A3015 RMK AO2 SLP217 T11721239

More Conditions Fewer Conditions

Presión 30.17 pul
Visibilidad 10.0 Millas
Nubes Despejado
Vientos helados -13 ° F
Punto de rocío -10 ° F
Humedad 76%
Precipitaciones 0.00 pul
Espesor de la nieve No disponible.
UV 0 de una escala de 12
Polen .10 de una escala de 12
Calidad del aire No disponible.
Flu Activity No disponible.
METAR KALB 311051Z 30014KT 10SM CLR M17/M24 A3015 RMK AO2 SLP217 T11721239

More Conditions Fewer Conditions

10-Day Weather Forecast

Almanac

Astronomía

Jan. 31, 2015 Salida Puesta
Hora real
Crepúsculo civil
Crepúsculo náutico
Crepúsculo astronómico
Luna
Horas de luz
Horas de luz
Tomorrow will be .
, % of the Moon is Illuminated

Extremos de hoy

Máximos del estado Bajos del estado

Community

WunderPhotos

Upload Photos

1,792,032 ¡fotos cargadas!

WunderBlogs® & News

Nearby

Calidad del aire

  Calidad del aire Índice AQ Contaminante
Not available.

Grosos de nieve

Estación Profundido Altura

Actividad de terremotos

Ciudad Distance Mag. Tiempo y dato
Magnitud mínima muestra es 2,5.

Temperaturas de aguas costeras

Lugar Temperatura

Estaciones meteorológicas cercanas